sensor_id;sensor_type;location;lat;lon;timestamp;P1;durP1;ratioP1;P2;durP2;ratioP2
13698;SDS011;6921;53.642;9.956;2023-04-24T00:00:31;9.82;;;8.50;;
13698;SDS011;6921;53.642;9.956;2023-04-24T00:02:34;10.15;;;9.15;;
13698;SDS011;6921;53.642;9.956;2023-04-24T00:04:39;10.13;;;8.48;;
13698;SDS011;6921;53.642;9.956;2023-04-24T00:06:42;9.30;;;8.40;;
13698;SDS011;6921;53.642;9.956;2023-04-24T00:08:50;11.38;;;8.82;;
13698;SDS011;6921;53.642;9.956;2023-04-24T00:10:53;9.38;;;8.38;;
13698;SDS011;6921;53.642;9.956;2023-04-24T00:12:57;10.07;;;8.98;;
13698;SDS011;6921;53.642;9.956;2023-04-24T00:15:00;9.68;;;8.68;;
13698;SDS011;6921;53.642;9.956;2023-04-24T00:17:05;9.57;;;8.68;;
13698;SDS011;6921;53.642;9.956;2023-04-24T00:19:11;9.55;;;8.48;;
13698;SDS011;6921;53.642;9.956;2023-04-24T00:21:14;10.20;;;8.70;;
13698;SDS011;6921;53.642;9.956;2023-04-24T00:23:19;11.05;;;9.02;;
13698;SDS011;6921;53.642;9.956;2023-04-24T00:25:22;9.68;;;8.77;;
13698;SDS011;6921;53.642;9.956;2023-04-24T00:27:25;9.70;;;8.70;;
13698;SDS011;6921;53.642;9.956;2023-04-24T00:29:29;10.88;;;9.27;;
13698;SDS011;6921;53.642;9.956;2023-04-24T00:31:32;12.55;;;9.27;;
13698;SDS011;6921;53.642;9.956;2023-04-24T00:33:38;10.10;;;9.13;;
13698;SDS011;6921;53.642;9.956;2023-04-24T00:35:41;9.27;;;8.25;;
13698;SDS011;6921;53.642;9.956;2023-04-24T00:37:45;11.15;;;10.05;;
13698;SDS011;6921;53.642;9.956;2023-04-24T00:39:48;10.43;;;9.32;;
13698;SDS011;6921;53.642;9.956;2023-04-24T00:41:51;9.77;;;8.70;;
13698;SDS011;6921;53.642;9.956;2023-04-24T00:43:56;9.38;;;8.40;;
13698;SDS011;6921;53.642;9.956;2023-04-24T00:45:59;10.35;;;9.02;;
13698;SDS011;6921;53.642;9.956;2023-04-24T00:48:03;10.40;;;9.32;;
13698;SDS011;6921;53.642;9.956;2023-04-24T00:50:09;10.80;;;9.70;;
13698;SDS011;6921;53.642;9.956;2023-04-24T00:52:12;11.48;;;10.15;;
13698;SDS011;6921;53.642;9.956;2023-04-24T00:54:18;11.23;;;10.02;;
13698;SDS011;6921;53.642;9.956;2023-04-24T00:56:22;11.63;;;9.63;;
13698;SDS011;6921;53.642;9.956;2023-04-24T00:58:25;10.88;;;9.68;;
13698;SDS011;6921;53.642;9.956;2023-04-24T01:00:29;11.75;;;9.63;;
13698;SDS011;6921;53.642;9.956;2023-04-24T01:02:33;11.95;;;9.27;;
13698;SDS011;6921;53.642;9.956;2023-04-24T01:04:36;10.77;;;9.50;;
13698;SDS011;6921;53.642;9.956;2023-04-24T01:06:41;10.68;;;9.60;;
13698;SDS011;6921;53.642;9.956;2023-04-24T01:08:46;11.30;;;9.57;;
13698;SDS011;6921;53.642;9.956;2023-04-24T01:10:50;10.45;;;9.38;;
13698;SDS011;6921;53.642;9.956;2023-04-24T01:12:54;11.27;;;10.07;;
13698;SDS011;6921;53.642;9.956;2023-04-24T01:14:58;10.30;;;9.18;;
13698;SDS011;6921;53.642;9.956;2023-04-24T01:17:02;10.43;;;9.43;;
13698;SDS011;6921;53.642;9.956;2023-04-24T01:19:06;10.23;;;8.98;;
13698;SDS011;6921;53.642;9.956;2023-04-24T01:21:09;11.90;;;9.98;;
13698;SDS011;6921;53.642;9.956;2023-04-24T01:23:17;10.20;;;9.20;;
13698;SDS011;6921;53.642;9.956;2023-04-24T01:25:20;9.88;;;8.88;;
13698;SDS011;6921;53.642;9.956;2023-04-24T01:27:23;9.70;;;8.70;;
13698;SDS011;6921;53.642;9.956;2023-04-24T01:29:27;9.45;;;8.55;;
13698;SDS011;6921;53.642;9.956;2023-04-24T01:31:30;8.38;;;7.57;;
13698;SDS011;6921;53.642;9.956;2023-04-24T01:33:34;8.23;;;7.43;;
13698;SDS011;6921;53.642;9.956;2023-04-24T01:35:37;8.38;;;7.57;;
13698;SDS011;6921;53.642;9.956;2023-04-24T01:37:41;8.68;;;7.78;;
13698;SDS011;6921;53.642;9.956;2023-04-24T01:39:46;9.63;;;7.70;;
13698;SDS011;6921;53.642;9.956;2023-04-24T01:41:49;7.80;;;7.00;;
13698;SDS011;6921;53.642;9.956;2023-04-24T01:43:53;8.52;;;7.72;;
13698;SDS011;6921;53.642;9.956;2023-04-24T01:45:57;8.32;;;7.53;;
13698;SDS011;6921;53.642;9.956;2023-04-24T01:48:00;8.15;;;7.13;;
13698;SDS011;6921;53.642;9.956;2023-04-24T01:50:04;8.00;;;7.30;;
13698;SDS011;6921;53.642;9.956;2023-04-24T01:52:07;10.23;;;7.00;;
13698;SDS011;6921;53.642;9.956;2023-04-24T01:54:11;8.18;;;7.38;;
13698;SDS011;6921;53.642;9.956;2023-04-24T01:56:16;8.13;;;7.00;;
13698;SDS011;6921;53.642;9.956;2023-04-24T01:58:19;7.18;;;6.47;;
13698;SDS011;6921;53.642;9.956;2023-04-24T02:00:23;7.13;;;6.47;;
13698;SDS011;6921;53.642;9.956;2023-04-24T02:02:26;7.05;;;6.40;;
13698;SDS011;6921;53.642;9.956;2023-04-24T02:04:31;6.72;;;6.07;;
13698;SDS011;6921;53.642;9.956;2023-04-24T02:06:34;5.88;;;5.38;;
13698;SDS011;6921;53.642;9.956;2023-04-24T02:08:38;4.60;;;4.20;;
13698;SDS011;6921;53.642;9.956;2023-04-24T02:10:41;4.88;;;4.35;;
13698;SDS011;6921;53.642;9.956;2023-04-24T02:12:47;6.25;;;3.95;;
13698;SDS011;6921;53.642;9.956;2023-04-24T02:14:50;4.80;;;4.13;;
13698;SDS011;6921;53.642;9.956;2023-04-24T02:16:53;4.97;;;3.78;;
13698;SDS011;6921;53.642;9.956;2023-04-24T02:18:57;4.82;;;4.07;;
13698;SDS011;6921;53.642;9.956;2023-04-24T02:21:00;4.13;;;3.60;;
13698;SDS011;6921;53.642;9.956;2023-04-24T02:23:04;3.50;;;3.20;;
13698;SDS011;6921;53.642;9.956;2023-04-24T02:25:07;3.78;;;3.47;;
13698;SDS011;6921;53.642;9.956;2023-04-24T02:27:11;3.63;;;3.20;;
13698;SDS011;6921;53.642;9.956;2023-04-24T02:29:16;3.10;;;2.75;;
13698;SDS011;6921;53.642;9.956;2023-04-24T02:31:19;2.70;;;2.50;;
13698;SDS011;6921;53.642;9.956;2023-04-24T02:33:23;3.15;;;2.65;;
13698;SDS011;6921;53.642;9.956;2023-04-24T02:35:27;2.75;;;2.55;;
13698;SDS011;6921;53.642;9.956;2023-04-24T02:37:31;2.92;;;2.63;;
13698;SDS011;6921;53.642;9.956;2023-04-24T02:39:34;2.83;;;2.30;;
13698;SDS011;6921;53.642;9.956;2023-04-24T02:41:38;2.75;;;2.28;;
13698;SDS011;6921;53.642;9.956;2023-04-24T02:43:41;3.20;;;2.50;;
13698;SDS011;6921;53.642;9.956;2023-04-24T02:45:46;2.08;;;1.98;;
13698;SDS011;6921;53.642;9.956;2023-04-24T02:47:50;2.72;;;2.53;;
13698;SDS011;6921;53.642;9.956;2023-04-24T02:49:53;2.38;;;2.17;;
13698;SDS011;6921;53.642;9.956;2023-04-24T02:51:56;4.90;;;2.28;;
13698;SDS011;6921;53.642;9.956;2023-04-24T02:54:00;2.75;;;2.47;;
13698;SDS011;6921;53.642;9.956;2023-04-24T02:56:03;3.58;;;2.50;;
13698;SDS011;6921;53.642;9.956;2023-04-24T02:58:07;2.60;;;2.40;;
13698;SDS011;6921;53.642;9.956;2023-04-24T03:00:11;2.60;;;2.40;;
13698;SDS011;6921;53.642;9.956;2023-04-24T03:02:16;2.83;;;2.42;;
13698;SDS011;6921;53.642;9.956;2023-04-24T03:04:21;2.85;;;2.60;;
13698;SDS011;6921;53.642;9.956;2023-04-24T03:06:25;2.90;;;2.70;;
13698;SDS011;6921;53.642;9.956;2023-04-24T03:08:29;2.97;;;2.65;;
13698;SDS011;6921;53.642;9.956;2023-04-24T03:10:32;3.35;;;3.08;;
13698;SDS011;6921;53.642;9.956;2023-04-24T03:12:36;3.42;;;3.13;;
13698;SDS011;6921;53.642;9.956;2023-04-24T03:14:39;3.03;;;2.72;;
13698;SDS011;6921;53.642;9.956;2023-04-24T03:16:43;3.55;;;3.15;;
13698;SDS011;6921;53.642;9.956;2023-04-24T03:18:47;4.00;;;3.08;;
13698;SDS011;6921;53.642;9.956;2023-04-24T03:20:51;3.80;;;3.10;;
13698;SDS011;6921;53.642;9.956;2023-04-24T03:22:54;3.50;;;3.20;;
13698;SDS011;6921;53.642;9.956;2023-04-24T03:24:58;4.60;;;3.42;;
13698;SDS011;6921;53.642;9.956;2023-04-24T03:27:01;3.03;;;2.78;;
13698;SDS011;6921;53.642;9.956;2023-04-24T03:29:05;3.25;;;2.92;;
13698;SDS011;6921;53.642;9.956;2023-04-24T03:31:08;3.25;;;2.95;;
13698;SDS011;6921;53.642;9.956;2023-04-24T03:33:12;3.28;;;2.97;;
13698;SDS011;6921;53.642;9.956;2023-04-24T03:35:17;2.75;;;2.55;;
13698;SDS011;6921;53.642;9.956;2023-04-24T03:37:20;2.90;;;2.70;;
13698;SDS011;6921;53.642;9.956;2023-04-24T03:39:24;3.03;;;2.80;;
13698;SDS011;6921;53.642;9.956;2023-04-24T03:41:28;3.42;;;2.67;;
13698;SDS011;6921;53.642;9.956;2023-04-24T03:43:32;3.40;;;2.78;;
13698;SDS011;6921;53.642;9.956;2023-04-24T03:45:36;4.13;;;2.72;;
13698;SDS011;6921;53.642;9.956;2023-04-24T03:47:39;3.10;;;2.80;;
13698;SDS011;6921;53.642;9.956;2023-04-24T03:49:43;2.83;;;2.53;;
13698;SDS011;6921;53.642;9.956;2023-04-24T03:51:48;3.45;;;2.83;;
13698;SDS011;6921;53.642;9.956;2023-04-24T03:53:51;4.35;;;2.95;;
13698;SDS011;6921;53.642;9.956;2023-04-24T03:55:55;3.42;;;3.00;;
13698;SDS011;6921;53.642;9.956;2023-04-24T03:57:58;3.10;;;2.65;;
13698;SDS011;6921;53.642;9.956;2023-04-24T04:00:02;3.30;;;2.83;;
13698;SDS011;6921;53.642;9.956;2023-04-24T04:02:06;2.92;;;2.65;;
13698;SDS011;6921;53.642;9.956;2023-04-24T04:04:10;2.58;;;2.38;;
13698;SDS011;6921;53.642;9.956;2023-04-24T04:06:14;3.22;;;2.47;;
13698;SDS011;6921;53.642;9.956;2023-04-24T04:08:19;3.10;;;2.88;;
13698;SDS011;6921;53.642;9.956;2023-04-24T04:10:23;2.70;;;2.50;;
13698;SDS011;6921;53.642;9.956;2023-04-24T04:12:26;3.25;;;2.65;;
13698;SDS011;6921;53.642;9.956;2023-04-24T04:14:29;2.45;;;2.25;;
13698;SDS011;6921;53.642;9.956;2023-04-24T04:16:33;2.45;;;2.30;;
13698;SDS011;6921;53.642;9.956;2023-04-24T04:18:37;4.47;;;2.63;;
13698;SDS011;6921;53.642;9.956;2023-04-24T04:20:40;2.70;;;2.38;;
13698;SDS011;6921;53.642;9.956;2023-04-24T04:22:44;3.92;;;2.65;;
13698;SDS011;6921;53.642;9.956;2023-04-24T04:24:48;2.42;;;2.25;;
13698;SDS011;6921;53.642;9.956;2023-04-24T04:26:52;2.53;;;2.33;;
13698;SDS011;6921;53.642;9.956;2023-04-24T04:28:57;2.47;;;2.25;;
13698;SDS011;6921;53.642;9.956;2023-04-24T04:31:01;2.10;;;2.00;;
13698;SDS011;6921;53.642;9.956;2023-04-24T04:33:05;2.45;;;1.88;;
13698;SDS011;6921;53.642;9.956;2023-04-24T04:35:09;2.53;;;2.33;;
13698;SDS011;6921;53.642;9.956;2023-04-24T04:37:13;2.55;;;2.20;;
13698;SDS011;6921;53.642;9.956;2023-04-24T04:39:16;2.30;;;2.10;;
13698;SDS011;6921;53.642;9.956;2023-04-24T04:41:22;2.40;;;1.98;;
13698;SDS011;6921;53.642;9.956;2023-04-24T04:43:26;1.80;;;1.70;;
13698;SDS011;6921;53.642;9.956;2023-04-24T04:45:29;3.70;;;2.38;;
13698;SDS011;6921;53.642;9.956;2023-04-24T04:47:33;2.30;;;2.10;;
13698;SDS011;6921;53.642;9.956;2023-04-24T04:49:37;3.85;;;2.08;;
13698;SDS011;6921;53.642;9.956;2023-04-24T04:51:40;3.53;;;2.10;;
13698;SDS011;6921;53.642;9.956;2023-04-24T04:53:44;1.90;;;1.80;;
13698;SDS011;6921;53.642;9.956;2023-04-24T04:55:47;4.50;;;2.00;;
13698;SDS011;6921;53.642;9.956;2023-04-24T04:57:52;1.83;;;1.73;;
13698;SDS011;6921;53.642;9.956;2023-04-24T04:59:57;2.22;;;1.85;;
13698;SDS011;6921;53.642;9.956;2023-04-24T05:02:00;2.83;;;1.80;;
13698;SDS011;6921;53.642;9.956;2023-04-24T05:04:04;2.63;;;1.77;;
13698;SDS011;6921;53.642;9.956;2023-04-24T05:06:07;3.60;;;1.70;;
13698;SDS011;6921;53.642;9.956;2023-04-24T05:08:11;2.95;;;1.65;;
13698;SDS011;6921;53.642;9.956;2023-04-24T05:10:18;2.10;;;1.90;;
13698;SDS011;6921;53.642;9.956;2023-04-24T05:12:21;3.97;;;2.28;;
13698;SDS011;6921;53.642;9.956;2023-04-24T05:14:26;4.57;;;1.98;;
13698;SDS011;6921;53.642;9.956;2023-04-24T05:16:29;2.08;;;1.88;;
13698;SDS011;6921;53.642;9.956;2023-04-24T05:18:33;1.77;;;1.67;;
13698;SDS011;6921;53.642;9.956;2023-04-24T05:20:37;2.95;;;2.15;;
13698;SDS011;6921;53.642;9.956;2023-04-24T05:22:40;1.70;;;1.60;;
13698;SDS011;6921;53.642;9.956;2023-04-24T05:24:43;1.80;;;1.70;;
13698;SDS011;6921;53.642;9.956;2023-04-24T05:26:47;1.95;;;1.80;;
13698;SDS011;6921;53.642;9.956;2023-04-24T05:28:50;2.00;;;1.80;;
13698;SDS011;6921;53.642;9.956;2023-04-24T05:30:55;2.17;;;1.85;;
13698;SDS011;6921;53.642;9.956;2023-04-24T05:33:03;3.97;;;1.40;;
13698;SDS011;6921;53.642;9.956;2023-04-24T05:35:07;2.30;;;1.58;;
13698;SDS011;6921;53.642;9.956;2023-04-24T05:37:13;1.95;;;1.75;;
13698;SDS011;6921;53.642;9.956;2023-04-24T05:39:18;2.20;;;1.58;;
13698;SDS011;6921;53.642;9.956;2023-04-24T05:41:22;2.38;;;1.70;;
13698;SDS011;6921;53.642;9.956;2023-04-24T05:43:26;1.58;;;1.42;;
13698;SDS011;6921;53.642;9.956;2023-04-24T05:45:30;1.58;;;1.48;;
13698;SDS011;6921;53.642;9.956;2023-04-24T05:47:35;1.70;;;1.60;;
13698;SDS011;6921;53.642;9.956;2023-04-24T05:49:38;1.73;;;1.63;;
13698;SDS011;6921;53.642;9.956;2023-04-24T05:51:42;1.90;;;1.55;;
13698;SDS011;6921;53.642;9.956;2023-04-24T05:53:45;2.60;;;1.55;;
13698;SDS011;6921;53.642;9.956;2023-04-24T05:55:49;1.58;;;1.48;;
13698;SDS011;6921;53.642;9.956;2023-04-24T05:57:52;1.92;;;1.45;;
13698;SDS011;6921;53.642;9.956;2023-04-24T05:59:56;2.17;;;1.60;;
13698;SDS011;6921;53.642;9.956;2023-04-24T06:02:00;3.38;;;1.58;;
13698;SDS011;6921;53.642;9.956;2023-04-24T06:04:04;3.70;;;1.40;;
13698;SDS011;6921;53.642;9.956;2023-04-24T06:06:08;1.88;;;1.42;;
13698;SDS011;6921;53.642;9.956;2023-04-24T06:08:11;1.52;;;1.42;;
13698;SDS011;6921;53.642;9.956;2023-04-24T06:10:15;1.90;;;1.58;;
13698;SDS011;6921;53.642;9.956;2023-04-24T06:12:18;2.33;;;1.50;;
13698;SDS011;6921;53.642;9.956;2023-04-24T06:14:22;1.70;;;1.60;;
13698;SDS011;6921;53.642;9.956;2023-04-24T06:16:25;2.70;;;1.95;;
13698;SDS011;6921;53.642;9.956;2023-04-24T06:18:29;1.50;;;1.40;;
13698;SDS011;6921;53.642;9.956;2023-04-24T06:20:34;2.88;;;1.75;;
13698;SDS011;6921;53.642;9.956;2023-04-24T06:22:37;1.60;;;1.50;;
13698;SDS011;6921;53.642;9.956;2023-04-24T06:24:41;1.73;;;1.63;;
13698;SDS011;6921;53.642;9.956;2023-04-24T06:26:44;1.83;;;1.60;;
13698;SDS011;6921;53.642;9.956;2023-04-24T06:28:48;1.55;;;1.45;;
13698;SDS011;6921;53.642;9.956;2023-04-24T06:30:51;1.73;;;1.60;;
13698;SDS011;6921;53.642;9.956;2023-04-24T06:32:55;1.33;;;1.23;;
13698;SDS011;6921;53.642;9.956;2023-04-24T06:35:03;3.75;;;1.60;;
13698;SDS011;6921;53.642;9.956;2023-04-24T06:37:09;1.60;;;1.50;;
13698;SDS011;6921;53.642;9.956;2023-04-24T06:39:13;2.35;;;1.70;;
13698;SDS011;6921;53.642;9.956;2023-04-24T06:41:16;1.60;;;1.48;;
13698;SDS011;6921;53.642;9.956;2023-04-24T06:43:20;2.42;;;1.60;;
13698;SDS011;6921;53.642;9.956;2023-04-24T06:45:23;1.60;;;1.50;;
13698;SDS011;6921;53.642;9.956;2023-04-24T06:47:27;1.58;;;1.48;;
13698;SDS011;6921;53.642;9.956;2023-04-24T06:49:30;1.70;;;1.60;;
13698;SDS011;6921;53.642;9.956;2023-04-24T06:51:34;2.58;;;1.67;;
13698;SDS011;6921;53.642;9.956;2023-04-24T06:53:38;1.45;;;1.35;;
13698;SDS011;6921;53.642;9.956;2023-04-24T06:55:42;2.30;;;1.60;;
13698;SDS011;6921;53.642;9.956;2023-04-24T06:57:46;1.98;;;1.60;;
13698;SDS011;6921;53.642;9.956;2023-04-24T06:59:49;2.47;;;1.83;;
13698;SDS011;6921;53.642;9.956;2023-04-24T07:01:53;2.92;;;1.60;;
13698;SDS011;6921;53.642;9.956;2023-04-24T07:03:56;3.20;;;1.50;;
13698;SDS011;6921;53.642;9.956;2023-04-24T07:06:01;1.95;;;1.60;;
13698;SDS011;6921;53.642;9.956;2023-04-24T07:08:14;1.77;;;1.67;;
13698;SDS011;6921;53.642;9.956;2023-04-24T07:10:21;2.38;;;1.90;;
13698;SDS011;6921;53.642;9.956;2023-04-24T07:12:24;2.15;;;2.00;;
13698;SDS011;6921;53.642;9.956;2023-04-24T07:14:31;2.00;;;1.90;;
13698;SDS011;6921;53.642;9.956;2023-04-24T07:16:34;2.33;;;2.20;;
13698;SDS011;6921;53.642;9.956;2023-04-24T07:18:39;2.30;;;2.10;;
13698;SDS011;6921;53.642;9.956;2023-04-24T07:20:42;2.42;;;2.25;;
13698;SDS011;6921;53.642;9.956;2023-04-24T07:22:47;2.67;;;2.30;;
13698;SDS011;6921;53.642;9.956;2023-04-24T07:24:52;2.72;;;2.53;;
13698;SDS011;6921;53.642;9.956;2023-04-24T07:26:57;3.20;;;2.90;;
13698;SDS011;6921;53.642;9.956;2023-04-24T07:29:02;2.63;;;2.42;;
13698;SDS011;6921;53.642;9.956;2023-04-24T07:31:06;3.47;;;3.17;;
13698;SDS011;6921;53.642;9.956;2023-04-24T07:33:10;3.22;;;2.95;;
13698;SDS011;6921;53.642;9.956;2023-04-24T07:35:14;3.22;;;2.92;;
13698;SDS011;6921;53.642;9.956;2023-04-24T07:37:18;3.20;;;2.90;;
13698;SDS011;6921;53.642;9.956;2023-04-24T07:39:26;3.17;;;2.97;;
13698;SDS011;6921;53.642;9.956;2023-04-24T07:41:35;3.80;;;3.50;;
13698;SDS011;6921;53.642;9.956;2023-04-24T07:46:18;3.80;;;3.50;;
13698;SDS011;6921;53.642;9.956;2023-04-24T07:48:38;3.42;;;2.70;;
13698;SDS011;6921;53.642;9.956;2023-04-24T07:50:59;3.05;;;2.78;;
13698;SDS011;6921;53.642;9.956;2023-04-24T07:53:02;3.80;;;3.50;;
13698;SDS011;6921;53.642;9.956;2023-04-24T07:55:06;3.90;;;3.60;;
13698;SDS011;6921;53.642;9.956;2023-04-24T07:57:09;4.85;;;4.40;;
13698;SDS011;6921;53.642;9.956;2023-04-24T07:59:13;4.78;;;4.38;;
13698;SDS011;6921;53.642;9.956;2023-04-24T08:01:18;4.80;;;4.40;;
13698;SDS011;6921;53.642;9.956;2023-04-24T08:03:22;4.57;;;4.18;;
13698;SDS011;6921;53.642;9.956;2023-04-24T08:05:26;4.30;;;3.90;;
13698;SDS011;6921;53.642;9.956;2023-04-24T08:07:30;4.40;;;4.03;;
13698;SDS011;6921;53.642;9.956;2023-04-24T08:09:34;4.97;;;4.18;;
13698;SDS011;6921;53.642;9.956;2023-04-24T08:11:38;5.05;;;4.57;;
13698;SDS011;6921;53.642;9.956;2023-04-24T08:13:41;4.53;;;4.13;;
13698;SDS011;6921;53.642;9.956;2023-04-24T08:15:45;4.50;;;4.10;;
13698;SDS011;6921;53.642;9.956;2023-04-24T08:17:50;4.40;;;4.03;;
13698;SDS011;6921;53.642;9.956;2023-04-24T08:19:53;3.80;;;3.45;;
13698;SDS011;6921;53.642;9.956;2023-04-24T08:22:02;4.57;;;3.92;;
13698;SDS011;6921;53.642;9.956;2023-04-24T08:24:06;4.80;;;4.40;;
13698;SDS011;6921;53.642;9.956;2023-04-24T08:26:10;4.38;;;3.97;;
13698;SDS011;6921;53.642;9.956;2023-04-24T08:28:15;4.85;;;4.30;;
13698;SDS011;6921;53.642;9.956;2023-04-24T08:30:21;4.72;;;4.32;;
13698;SDS011;6921;53.642;9.956;2023-04-24T08:32:24;4.80;;;4.40;;
13698;SDS011;6921;53.642;9.956;2023-04-24T08:34:31;5.38;;;4.97;;
13698;SDS011;6921;53.642;9.956;2023-04-24T08:36:35;4.80;;;4.40;;
13698;SDS011;6921;53.642;9.956;2023-04-24T08:38:47;4.95;;;4.50;;
13698;SDS011;6921;53.642;9.956;2023-04-24T08:40:50;5.32;;;4.82;;
13698;SDS011;6921;53.642;9.956;2023-04-24T08:42:54;6.32;;;5.75;;
13698;SDS011;6921;53.642;9.956;2023-04-24T08:45:01;5.53;;;5.03;;
13698;SDS011;6921;53.642;9.956;2023-04-24T08:47:11;5.80;;;5.30;;
13698;SDS011;6921;53.642;9.956;2023-04-24T08:49:17;5.75;;;5.25;;
13698;SDS011;6921;53.642;9.956;2023-04-24T08:51:22;5.50;;;4.85;;
13698;SDS011;6921;53.642;9.956;2023-04-24T08:53:27;5.25;;;4.75;;
13698;SDS011;6921;53.642;9.956;2023-04-24T08:55:31;5.50;;;5.00;;
13698;SDS011;6921;53.642;9.956;2023-04-24T08:57:37;5.45;;;4.95;;
13698;SDS011;6921;53.642;9.956;2023-04-24T08:59:43;5.35;;;4.85;;
13698;SDS011;6921;53.642;9.956;2023-04-24T09:01:48;6.03;;;5.47;;
13698;SDS011;6921;53.642;9.956;2023-04-24T09:03:54;5.97;;;5.38;;
13698;SDS011;6921;53.642;9.956;2023-04-24T09:06:00;6.03;;;5.43;;
13698;SDS011;6921;53.642;9.956;2023-04-24T09:08:06;5.75;;;5.18;;
13698;SDS011;6921;53.642;9.956;2023-04-24T09:10:12;5.93;;;5.43;;
13698;SDS011;6921;53.642;9.956;2023-04-24T09:12:16;6.50;;;5.90;;
13698;SDS011;6921;53.642;9.956;2023-04-24T09:14:22;6.47;;;5.97;;
13698;SDS011;6921;53.642;9.956;2023-04-24T09:16:27;6.85;;;6.07;;
13698;SDS011;6921;53.642;9.956;2023-04-24T09:18:31;6.47;;;5.88;;
13698;SDS011;6921;53.642;9.956;2023-04-24T09:22:58;7.55;;;6.85;;
13698;SDS011;6921;53.642;9.956;2023-04-24T09:25:04;6.30;;;5.70;;
13698;SDS011;6921;53.642;9.956;2023-04-24T09:27:08;5.95;;;5.45;;
13698;SDS011;6921;53.642;9.956;2023-04-24T09:29:16;6.32;;;5.72;;
13698;SDS011;6921;53.642;9.956;2023-04-24T09:31:20;7.25;;;6.28;;
13698;SDS011;6921;53.642;9.956;2023-04-24T09:33:24;6.95;;;6.35;;
13698;SDS011;6921;53.642;9.956;2023-04-24T09:35:29;7.45;;;6.45;;
13698;SDS011;6921;53.642;9.956;2023-04-24T09:37:35;6.70;;;6.10;;
13698;SDS011;6921;53.642;9.956;2023-04-24T09:39:39;6.90;;;6.15;;
13698;SDS011;6921;53.642;9.956;2023-04-24T09:41:45;6.15;;;5.55;;
13698;SDS011;6921;53.642;9.956;2023-04-24T09:43:48;6.35;;;5.75;;
13698;SDS011;6921;53.642;9.956;2023-04-24T09:45:55;6.30;;;5.70;;
13698;SDS011;6921;53.642;9.956;2023-04-24T09:48:00;6.28;;;5.68;;
13698;SDS011;6921;53.642;9.956;2023-04-24T09:50:11;5.85;;;5.35;;
13698;SDS011;6921;53.642;9.956;2023-04-24T09:52:15;6.38;;;5.78;;
13698;SDS011;6921;53.642;9.956;2023-04-24T09:54:20;6.68;;;5.43;;
13698;SDS011;6921;53.642;9.956;2023-04-24T09:56:23;6.18;;;5.57;;
13698;SDS011;6921;53.642;9.956;2023-04-24T09:58:31;6.88;;;6.15;;
13698;SDS011;6921;53.642;9.956;2023-04-24T10:00:34;6.00;;;5.50;;
13698;SDS011;6921;53.642;9.956;2023-04-24T10:02:38;8.10;;;6.72;;
13698;SDS011;6921;53.642;9.956;2023-04-24T10:04:42;7.03;;;6.25;;
13698;SDS011;6921;53.642;9.956;2023-04-24T10:06:57;8.05;;;6.97;;
13698;SDS011;6921;53.642;9.956;2023-04-24T10:09:02;6.95;;;6.30;;
13698;SDS011;6921;53.642;9.956;2023-04-24T10:11:06;7.28;;;6.53;;
13698;SDS011;6921;53.642;9.956;2023-04-24T10:13:13;7.90;;;7.10;;
13698;SDS011;6921;53.642;9.956;2023-04-24T10:15:19;7.35;;;6.70;;
13698;SDS011;6921;53.642;9.956;2023-04-24T10:17:23;7.07;;;6.38;;
13698;SDS011;6921;53.642;9.956;2023-04-24T10:19:32;8.25;;;7.40;;
13698;SDS011;6921;53.642;9.956;2023-04-24T10:21:37;8.68;;;7.75;;
13698;SDS011;6921;53.642;9.956;2023-04-24T10:23:43;9.35;;;7.65;;
13698;SDS011;6921;53.642;9.956;2023-04-24T10:25:49;8.55;;;7.75;;
13698;SDS011;6921;53.642;9.956;2023-04-24T10:27:55;9.13;;;7.47;;
13698;SDS011;6921;53.642;9.956;2023-04-24T10:30:01;8.65;;;7.80;;
13698;SDS011;6921;53.642;9.956;2023-04-24T10:32:08;8.85;;;8.02;;
13698;SDS011;6921;53.642;9.956;2023-04-24T10:34:13;9.57;;;8.68;;
13698;SDS011;6921;53.642;9.956;2023-04-24T10:36:23;9.93;;;8.93;;
13698;SDS011;6921;53.642;9.956;2023-04-24T10:38:28;10.10;;;8.77;;
13698;SDS011;6921;53.642;9.956;2023-04-24T10:40:34;10.32;;;9.32;;
13698;SDS011;6921;53.642;9.956;2023-04-24T10:42:39;10.50;;;9.30;;
13698;SDS011;6921;53.642;9.956;2023-04-24T10:44:44;10.80;;;9.70;;
13698;SDS011;6921;53.642;9.956;2023-04-24T10:46:52;13.63;;;9.63;;
13698;SDS011;6921;53.642;9.956;2023-04-24T10:48:57;11.40;;;9.30;;
13698;SDS011;6921;53.642;9.956;2023-04-24T10:51:04;10.48;;;9.35;;
13698;SDS011;6921;53.642;9.956;2023-04-24T10:53:11;9.82;;;8.77;;
13698;SDS011;6921;53.642;9.956;2023-04-24T10:55:15;14.00;;;9.85;;
13698;SDS011;6921;53.642;9.956;2023-04-24T10:57:25;10.57;;;9.48;;
13698;SDS011;6921;53.642;9.956;2023-04-24T10:59:34;10.95;;;9.20;;
13698;SDS011;6921;53.642;9.956;2023-04-24T11:01:39;10.35;;;9.35;;
13698;SDS011;6921;53.642;9.956;2023-04-24T11:03:44;13.50;;;9.40;;
13698;SDS011;6921;53.642;9.956;2023-04-24T11:05:58;10.32;;;9.30;;
13698;SDS011;6921;53.642;9.956;2023-04-24T11:08:12;12.68;;;9.65;;
13698;SDS011;6921;53.642;9.956;2023-04-24T11:10:24;10.32;;;9.27;;
13698;SDS011;6921;53.642;9.956;2023-04-24T11:12:28;10.18;;;9.18;;
13698;SDS011;6921;53.642;9.956;2023-04-24T11:16:51;10.77;;;8.73;;
13698;SDS011;6921;53.642;9.956;2023-04-24T11:19:02;10.73;;;9.65;;
13698;SDS011;6921;53.642;9.956;2023-04-24T11:21:11;12.48;;;9.93;;
13698;SDS011;6921;53.642;9.956;2023-04-24T11:23:16;10.82;;;9.50;;
13698;SDS011;6921;53.642;9.956;2023-04-24T11:25:21;10.68;;;9.40;;
13698;SDS011;6921;53.642;9.956;2023-04-24T11:27:26;12.43;;;9.32;;
13698;SDS011;6921;53.642;9.956;2023-04-24T11:29:42;10.77;;;8.90;;
13698;SDS011;6921;53.642;9.956;2023-04-24T11:31:46;8.85;;;8.02;;
13698;SDS011;6921;53.642;9.956;2023-04-24T11:33:55;11.50;;;9.05;;
13698;SDS011;6921;53.642;9.956;2023-04-24T11:35:59;9.38;;;7.90;;
13698;SDS011;6921;53.642;9.956;2023-04-24T11:38:07;11.57;;;9.02;;
13698;SDS011;6921;53.642;9.956;2023-04-24T11:40:24;9.45;;;8.48;;
13698;SDS011;6921;53.642;9.956;2023-04-24T11:42:28;10.18;;;8.95;;
13698;SDS011;6921;53.642;9.956;2023-04-24T11:44:32;9.30;;;8.40;;
13698;SDS011;6921;53.642;9.956;2023-04-24T11:46:38;8.98;;;8.07;;
13698;SDS011;6921;53.642;9.956;2023-04-24T11:48:44;12.10;;;9.27;;
13698;SDS011;6921;53.642;9.956;2023-04-24T11:50:47;10.25;;;9.15;;
13698;SDS011;6921;53.642;9.956;2023-04-24T11:52:51;9.35;;;8.35;;
13698;SDS011;6921;53.642;9.956;2023-04-24T11:54:57;9.80;;;8.80;;
13698;SDS011;6921;53.642;9.956;2023-04-24T11:57:03;10.82;;;8.15;;
13698;SDS011;6921;53.642;9.956;2023-04-24T11:59:07;10.50;;;9.43;;
13698;SDS011;6921;53.642;9.956;2023-04-24T12:01:10;10.82;;;9.00;;
13698;SDS011;6921;53.642;9.956;2023-04-24T12:03:14;10.52;;;8.98;;
13698;SDS011;6921;53.642;9.956;2023-04-24T12:05:21;10.25;;;8.93;;
13698;SDS011;6921;53.642;9.956;2023-04-24T12:07:25;9.68;;;8.68;;
13698;SDS011;6921;53.642;9.956;2023-04-24T12:09:28;9.15;;;8.30;;
13698;SDS011;6921;53.642;9.956;2023-04-24T12:11:33;10.02;;;8.40;;
13698;SDS011;6921;53.642;9.956;2023-04-24T12:13:36;8.50;;;7.70;;
13698;SDS011;6921;53.642;9.956;2023-04-24T12:15:40;8.10;;;7.32;;
13698;SDS011;6921;53.642;9.956;2023-04-24T12:17:44;7.80;;;6.95;;
13698;SDS011;6921;53.642;9.956;2023-04-24T12:19:47;9.20;;;7.40;;
13698;SDS011;6921;53.642;9.956;2023-04-24T12:21:58;8.43;;;7.50;;
13698;SDS011;6921;53.642;9.956;2023-04-24T12:24:05;8.32;;;7.05;;
13698;SDS011;6921;53.642;9.956;2023-04-24T12:26:09;7.68;;;6.90;;
13698;SDS011;6921;53.642;9.956;2023-04-24T12:28:13;7.93;;;7.13;;
13698;SDS011;6921;53.642;9.956;2023-04-24T12:30:18;6.97;;;6.28;;
13698;SDS011;6921;53.642;9.956;2023-04-24T12:32:22;9.52;;;7.13;;
13698;SDS011;6921;53.642;9.956;2023-04-24T12:34:28;7.85;;;7.03;;
13698;SDS011;6921;53.642;9.956;2023-04-24T12:36:35;8.07;;;7.28;;
13698;SDS011;6921;53.642;9.956;2023-04-24T12:38:38;7.97;;;7.25;;
13698;SDS011;6921;53.642;9.956;2023-04-24T12:40:46;7.53;;;6.45;;
13698;SDS011;6921;53.642;9.956;2023-04-24T12:42:51;8.10;;;7.00;;
13698;SDS011;6921;53.642;9.956;2023-04-24T12:44:58;7.60;;;6.80;;
13698;SDS011;6921;53.642;9.956;2023-04-24T12:47:02;8.73;;;7.40;;